Time;durP1;ratioP1;P1;durP2;ratioP2;P2;SDS_P1;SDS_P2;PMS_P1;PMS_P2;Temp;Humidity;BMP_temperature;BMP_pressure;BME280_temperature;BME280_humidity;BME280_pressure;Samples;Min_cycle;Max_cycle;Signal;HPM_P1;HPM_P2
2023/01/05 00:01:22;;;;;;;2.27;1.93;;;;;;;4.88;100.00;100072.31;5113894;28;20190;-61
2023/01/05 00:03:49;;;;;;;5.87;1.93;;;;;;;4.92;100.00;100074.72;5113537;28;20224;-61
2023/01/05 00:06:17;;;;;;;2.50;1.97;;;;;;;4.76;100.00;100064.22;5113941;28;20200;-61
2023/01/05 00:08:45;;;;;;;1.77;1.10;;;;;;;4.82;100.00;100070.00;5113587;28;20279;-58
2023/01/05 00:22:30;;;;;;;2.27;1.27;;;;;;;4.55;100.00;100070.00;5113530;28;20286;-59
2023/01/05 00:24:57;;;;;;;2.27;1.40;;;;;;;4.56;100.00;100066.59;5113569;28;20209;-60
2023/01/05 00:27:24;;;;;;;2.03;1.83;;;;;;;4.61;100.00;100063.91;5113458;28;20209;-58
2023/01/05 00:29:51;;;;;;;1.40;1.13;;;;;;;4.63;100.00;100062.16;5113411;28;20349;-61
2023/01/05 00:32:19;;;;;;;1.80;1.70;;;;;;;4.57;100.00;100063.19;5113654;28;20201;-61
2023/01/05 00:34:46;;;;;;;2.07;1.40;;;;;;;4.67;100.00;100064.53;5113469;28;20213;-61
2023/01/05 00:37:13;;;;;;;2.03;1.30;;;;;;;4.67;100.00;100059.47;5113395;28;20240;-61
2023/01/05 00:39:40;;;;;;;1.37;1.17;;;;;;;4.59;100.00;100056.34;5113074;28;20210;-58
2023/01/05 00:42:06;;;;;;;1.87;1.73;;;;;;;4.58;100.00;100059.78;5112983;28;20193;-61
2023/01/05 00:44:33;;;;;;;1.17;1.13;;;;;;;4.64;100.00;100049.44;5113046;28;20510;-61
2023/01/05 00:47:00;;;;;;;2.47;1.40;;;;;;;4.65;100.00;100051.09;5113224;28;20394;-59
2023/01/05 00:49:28;;;;;;;1.57;1.43;;;;;;;4.66;100.00;100042.63;5112799;28;20240;-61
2023/01/05 00:51:55;;;;;;;1.97;1.87;;;;;;;4.71;100.00;100050.06;5112767;28;20204;-61
2023/01/05 00:54:22;;;;;;;3.00;1.80;;;;;;;4.72;100.00;100051.75;5113087;28;20212;-61
2023/01/05 00:56:49;;;;;;;3.30;2.40;;;;;;;4.71;100.00;100045.84;5112150;28;20228;-61
2023/01/05 00:59:16;;;;;;;0.80;0.80;;;;;;;4.74;100.00;100044.88;5112523;28;20210;-61
2023/01/05 01:01:45;;;;;;;1.87;1.20;;;;;;;4.81;100.00;100040.47;5113068;28;20204;-61
2023/01/05 01:04:12;;;;;;;2.47;2.27;;;;;;;4.80;100.00;100039.66;5112794;28;20704;-59
2023/01/05 01:06:40;;;;;;;1.83;1.63;;;;;;;4.75;100.00;100042.31;5112443;28;20193;-58
2023/01/05 01:09:07;;;;;;;1.33;1.20;;;;;;;4.72;100.00;100042.44;5112510;28;20209;-58
2023/01/05 01:11:34;;;;;;;1.87;1.50;;;;;;;4.71;100.00;100037.41;5112648;28;20201;-58
2023/01/05 01:14:01;;;;;;;2.20;1.83;;;;;;;4.80;100.00;100031.19;5112217;28;20228;-59
2023/01/05 01:16:28;;;;;;;3.33;1.80;;;;;;;4.73;100.00;100023.81;5112267;28;20256;-59
2023/01/05 01:18:56;;;;;;;1.80;1.63;;;;;;;4.69;100.00;100024.78;5112184;28;20249;-59
2023/01/05 01:21:23;;;;;;;2.30;2.00;;;;;;;4.71;100.00;100020.50;5112059;28;20208;-59
2023/01/05 01:23:51;;;;;;;2.27;2.03;;;;;;;4.73;100.00;100018.75;5112335;28;20217;-59
2023/01/05 01:26:18;;;;;;;2.37;1.70;;;;;;;4.80;100.00;100016.00;5112085;28;20204;-59
2023/01/05 01:28:47;;;;;;;5.53;2.73;;;;;;;4.85;100.00;100006.53;5112296;28;20217;-59
2023/01/05 01:31:14;;;;;;;3.87;2.23;;;;;;;4.81;100.00;100005.81;5112430;27;20201;-61
2023/01/05 01:33:41;;;;;;;2.40;1.90;;;;;;;4.81;100.00;100005.00;5111801;28;20224;-61
2023/01/05 01:36:08;;;;;;;2.23;2.03;;;;;;;4.85;100.00;99998.94;5111809;28;20599;-61
2023/01/05 01:38:36;;;;;;;2.60;2.40;;;;;;;4.89;100.00;99992.91;5111955;28;20580;-59
2023/01/05 01:41:05;;;;;;;2.03;1.90;;;;;;;4.88;100.00;99988.69;5111765;28;20193;-59
2023/01/05 01:43:47;;;;;;;2.20;1.73;;;;;;;4.92;100.00;99978.41;5111767;28;20225;-59
2023/01/05 01:46:15;;;;;;;4.77;2.67;;;;;;;4.90;100.00;99980.16;5111726;28;20200;-59
2023/01/05 01:48:47;;;;;;;1.63;1.37;;;;;;;4.85;100.00;99981.19;5111472;28;20224;-61
2023/01/05 01:51:19;;;;;;;2.90;1.57;;;;;;;4.87;100.00;99971.84;5111623;28;20680;-59
2023/01/05 01:53:51;;;;;;;2.27;1.80;;;;;;;4.85;100.00;99976.13;5112071;27;20217;-59
2023/01/05 01:56:24;;;;;;;1.30;1.20;;;;;;;4.90;100.00;99966.69;5111522;28;20233;-59
2023/01/05 01:58:52;;;;;;;5.20;2.10;;;;;;;4.92;100.00;99959.84;5111562;28;20225;-59
2023/01/05 02:01:19;;;;;;;3.87;2.53;;;;;;;4.95;100.00;99952.97;5111472;28;20198;-59
2023/01/05 02:03:46;;;;;;;2.60;1.90;;;;;;;4.92;100.00;99955.63;5111379;28;20656;-59
2023/01/05 02:06:13;;;;;;;1.70;1.60;;;;;;;4.98;100.00;99942.72;5111043;27;20201;-59
2023/01/05 02:08:40;;;;;;;2.23;1.97;;;;;;;4.98;100.00;99939.38;5110379;28;20617;-61
2023/01/05 02:11:30;;;;;;;1.60;1.50;;;;;;;4.98;100.00;99940.19;5111362;28;20280;-61
2023/01/05 02:14:11;;;;;;;2.77;1.90;;;;;;;5.03;100.00;99929.03;5111008;28;20227;-61
2023/01/05 02:16:46;;;;;;;2.57;1.93;;;;;;;5.03;100.00;99929.88;5110969;28;20231;-61
2023/01/05 02:19:41;;;;;;;2.53;1.73;;;;;;;5.05;100.00;99932.38;5111221;28;20227;-61
2023/01/05 02:22:27;;;;;;;2.73;1.57;;;;;;;5.08;100.00;99935.59;5108309;28;20193;-61
2023/01/05 02:25:22;;;;;;;1.53;1.43;;;;;;;5.10;100.00;99936.38;5110837;28;20213;-59
2023/01/05 02:27:59;;;;;;;2.37;1.77;;;;;;;5.08;100.00;99935.59;5111113;28;20573;-61
2023/01/05 02:30:59;;;;;;;2.83;1.33;;;;;;;5.25;100.00;99921.50;5110752;28;20197;-61
2023/01/05 02:33:41;;;;;;;2.13;1.93;;;;;;;5.26;100.00;99910.47;5108330;28;20237;-59
2023/01/05 02:36:17;;;;;;;2.13;1.93;;;;;;;5.27;100.00;99912.13;5110543;28;20810;-59
2023/01/05 02:38:49;;;;;;;2.50;2.30;;;;;;;5.27;100.00;99909.59;5110521;28;20224;-61
2023/01/05 02:41:21;;;;;;;4.23;2.40;;;;;;;5.28;100.00;99908.72;5110932;28;20208;-61
2023/01/05 02:43:48;;;;;;;2.57;1.93;;;;;;;5.20;100.00;99902.19;5111081;28;20225;-59
2023/01/05 02:46:15;;;;;;;1.57;1.43;;;;;;;5.22;100.00;99889.47;5110710;28;20201;-59
2023/01/05 02:48:47;;;;;;;2.60;2.40;;;;;;;5.23;100.00;99891.13;5110788;28;20213;-58
2023/01/05 02:51:18;;;;;;;4.63;3.40;;;;;;;5.30;100.00;99884.13;5110424;28;20193;-59
2023/01/05 02:53:51;;;;;;;2.73;2.37;;;;;;;5.38;100.00;99879.56;5109968;28;20240;-61
2023/01/05 02:56:24;;;;;;;4.50;3.27;;;;;;;5.34;100.00;99875.50;5110413;28;20223;-61
2023/01/05 02:58:56;;;;;;;2.50;1.83;;;;;;;5.33;100.00;99877.22;5110503;28;20219;-61
2023/01/05 03:01:27;;;;;;;5.43;3.13;;;;;;;5.39;100.00;99881.25;5110628;28;20185;-58
2023/01/05 03:03:57;;;;;;;3.33;2.53;;;;;;;5.36;100.00;99871.22;5110391;28;20228;-59
2023/01/05 03:06:29;;;;;;;2.77;2.03;;;;;;;5.44;100.00;99864.16;5110541;28;20200;-61
2023/01/05 03:09:00;;;;;;;4.43;3.33;;;;;;;5.30;100.00;99853.72;5110320;28;20225;-61
2023/01/05 03:14:24;;;;;;;2.63;2.43;;;;;;;5.31;100.00;99847.75;5110505;28;20319;-61
2023/01/05 03:16:55;;;;;;;2.53;2.33;;;;;;;5.29;100.00;99847.78;5110103;28;20213;-61
2023/01/05 03:19:39;;;;;;;3.33;3.00;;;;;;;5.33;100.00;99845.97;5109809;28;20719;-61
2023/01/05 03:36:18;;;;;;;2.57;2.40;;;;;;;5.49;100.00;99826.72;5110153;28;20524;-61
2023/01/05 03:38:48;;;;;;;3.00;2.07;;;;;;;5.39;100.00;99820.38;5110046;28;20601;-59
2023/01/05 03:41:17;;;;;;;4.00;2.93;;;;;;;5.37;100.00;99819.63;5109796;28;20203;-59
2023/01/05 03:43:46;;;;;;;6.97;2.77;;;;;;;5.48;100.00;99820.03;5109757;28;20232;-59
2023/01/05 03:46:17;;;;;;;2.33;2.13;;;;;;;5.39;100.00;99810.25;5109946;28;20203;-59
2023/01/05 03:48:44;;;;;;;3.40;2.40;;;;;;;5.40;100.00;99816.94;5110117;28;21310;-59
2023/01/05 03:51:11;;;;;;;7.20;4.33;;;;;;;5.40;100.00;99811.88;5110184;28;20197;-59
2023/01/05 03:53:39;;;;;;;2.70;2.47;;;;;;;5.51;100.00;99811.47;5109783;28;20225;-61
2023/01/05 03:56:06;;;;;;;3.27;2.87;;;;;;;5.53;100.00;99813.06;5109806;28;20231;-61
2023/01/05 03:58:33;;;;;;;2.90;2.63;;;;;;;5.54;100.00;99799.47;5109528;28;20221;-61
2023/01/05 04:01:00;;;;;;;2.67;2.47;;;;;;;5.48;100.00;99804.81;5109449;28;20712;-61
2023/01/05 04:03:27;;;;;;;4.73;3.70;;;;;;;5.37;100.00;99801.88;5109347;28;20217;-61
2023/01/05 04:05:54;;;;;;;4.63;3.13;;;;;;;5.35;100.00;99799.41;5109842;28;20197;-59
2023/01/05 04:08:21;;;;;;;2.47;2.27;;;;;;;5.33;100.00;99790.22;5109965;28;20213;-59
2023/01/05 04:10:51;;;;;;;4.47;1.87;;;;;;;5.16;100.00;99789.13;5109600;28;20224;-59
2023/01/05 04:13:18;;;;;;;5.27;2.30;;;;;;;5.26;100.00;99778.63;5109875;28;20634;-58
2023/01/05 04:15:45;;;;;;;2.33;1.80;;;;;;;5.17;100.00;99790.78;5109576;28;20205;-59
2023/01/05 04:18:12;;;;;;;2.83;2.50;;;;;;;5.06;100.00;99787.84;5109504;28;20216;-59
2023/01/05 04:20:39;;;;;;;5.13;2.80;;;;;;;5.06;100.00;99781.94;5109577;28;20205;-61
2023/01/05 04:23:06;;;;;;;2.47;2.27;;;;;;;4.96;100.00;99786.53;5109534;28;20212;-61
2023/01/05 04:25:32;;;;;;;4.77;3.57;;;;;;;5.02;100.00;99786.31;5109422;28;20201;-59
2023/01/05 04:28:01;;;;;;;2.23;2.03;;;;;;;5.03;100.00;99785.41;5109352;28;20216;-59
2023/01/05 04:30:29;;;;;;;3.87;2.73;;;;;;;4.98;100.00;99789.84;5109282;28;20193;-61
2023/01/05 04:32:56;;;;;;;4.23;2.50;;;;;;;4.96;100.00;99786.53;5111971;28;20201;-59
2023/01/05 04:35:22;;;;;;;2.63;2.40;;;;;;;4.88;100.00;99784.28;5113271;28;20204;-59
2023/01/05 04:37:49;;;;;;;2.80;1.87;;;;;;;4.78;100.00;99777.13;5113461;28;20229;-59
2023/01/05 04:40:16;;;;;;;2.40;1.80;;;;;;;4.91;100.00;99779.09;5113220;28;20213;-61
2023/01/05 04:42:43;;;;;;;4.73;2.30;;;;;;;4.86;100.00;99775.09;5113054;28;20209;-61
2023/01/05 04:45:12;;;;;;;3.43;1.33;;;;;;;4.79;100.00;99768.63;5113104;28;20229;-59
2023/01/05 04:47:38;;;;;;;2.43;2.00;;;;;;;4.74;100.00;99767.09;5112686;28;20197;-59
2023/01/05 04:50:07;;;;;;;5.90;2.23;;;;;;;4.58;100.00;99758.41;5112695;28;20223;-61
2023/01/05 04:52:34;;;;;;;1.83;1.60;;;;;;;4.47;100.00;99763.03;5113020;28;20224;-59
2023/01/05 04:55:00;;;;;;;2.00;1.63;;;;;;;4.31;100.00;99761.06;5112791;28;20266;-61
2023/01/05 04:57:27;;;;;;;2.73;1.93;;;;;;;4.42;100.00;99759.84;5112863;28;20252;-58
2023/01/05 04:59:54;;;;;;;1.97;1.80;;;;;;;4.46;100.00;99757.16;5112581;28;20229;-59
2023/01/05 05:02:22;;;;;;;1.97;1.70;;;;;;;4.32;100.00;99751.75;5112815;28;20212;-58
2023/01/05 05:04:49;;;;;;;1.47;1.20;;;;;;;4.19;100.00;99746.31;5112798;28;20224;-58
2023/01/05 05:07:16;;;;;;;2.43;1.37;;;;;;;4.19;100.00;99741.25;5112413;28;20567;-58
2023/01/05 05:09:43;;;;;;;1.90;1.80;;;;;;;4.09;100.00;99737.38;5112725;28;20652;-61
2023/01/05 05:12:10;;;;;;;1.57;1.37;;;;;;;4.15;100.00;99734.63;5112298;28;20209;-61
2023/01/05 05:14:37;;;;;;;3.20;1.37;;;;;;;3.99;100.00;99731.81;5112530;28;20213;-61
2023/01/05 05:17:03;;;;;;;3.63;2.13;;;;;;;4.00;100.00;99727.59;5112309;28;20358;-59
2023/01/05 05:19:32;;;;;;;1.47;1.37;;;;;;;4.11;100.00;99730.56;5112516;28;20217;-58
2023/01/05 05:21:59;;;;;;;3.47;2.00;;;;;;;4.10;100.00;99718.78;5112030;28;20201;-58
2023/01/05 05:24:26;;;;;;;2.40;2.13;;;;;;;4.02;100.00;99720.78;5112210;28;20224;-59
2023/01/05 05:26:53;;;;;;;2.53;2.00;;;;;;;3.96;100.00;99726.88;5112293;28;20212;-59
2023/01/05 05:29:19;;;;;;;1.47;1.37;;;;;;;3.91;100.00;99722.84;5112600;28;20231;-59
2023/01/05 05:31:47;;;;;;;2.20;2.00;;;;;;;3.96;100.00;99723.53;5112178;28;20206;-58
2023/01/05 05:34:13;;;;;;;1.60;1.40;;;;;;;3.88;100.00;99722.97;5112010;28;20221;-61
2023/01/05 05:36:42;;;;;;;1.27;1.17;;;;;;;3.89;100.00;99714.47;5111785;28;20236;-61
2023/01/05 05:39:11;;;;;;;1.87;1.53;;;;;;;3.97;100.00;99707.47;5111670;28;20228;-58
2023/01/05 05:41:38;;;;;;;3.13;1.23;;;;;;;3.94;100.00;99712.63;5111883;28;20194;-61
2023/01/05 05:44:05;;;;;;;2.00;1.40;;;;;;;3.83;100.00;99706.22;5111701;28;20229;-61
2023/01/05 05:46:32;;;;;;;3.77;1.67;;;;;;;3.91;100.00;99702.63;5111779;28;20212;-61
2023/01/05 05:48:59;;;;;;;1.03;0.93;;;;;;;3.89;100.00;99694.25;5111694;28;20217;-61
2023/01/05 05:51:27;;;;;;;1.97;1.43;;;;;;;3.96;100.00;99695.69;5111705;28;20631;-59
2023/01/05 05:53:55;;;;;;;2.17;1.20;;;;;;;3.92;100.00;99694.13;5111562;28;20768;-58
2023/01/05 05:56:22;;;;;;;2.50;1.83;;;;;;;3.95;100.00;99699.91;5111602;28;20197;-59
2023/01/05 05:58:48;;;;;;;2.07;1.60;;;;;;;3.85;100.00;99698.59;5111685;28;20217;-61
2023/01/05 06:01:15;;;;;;;2.47;1.53;;;;;;;3.88;100.00;99693.44;5111446;28;20209;-61
2023/01/05 06:03:42;;;;;;;3.07;1.27;;;;;;;3.88;100.00;99690.06;5111219;28;20610;-59
2023/01/05 06:06:09;;;;;;;3.47;2.37;;;;;;;3.94;100.00;99697.44;5111163;28;20208;-59
2023/01/05 06:08:36;;;;;;;2.63;1.33;;;;;;;3.97;100.00;99697.34;5111551;28;20221;-61
2023/01/05 06:11:05;;;;;;;2.10;1.60;;;;;;;4.08;100.00;99700.31;5111084;28;20197;-61
2023/01/05 06:13:31;;;;;;;3.37;1.67;;;;;;;4.13;100.00;99693.41;5111392;28;20306;-59
2023/01/05 06:15:58;;;;;;;1.83;1.67;;;;;;;4.22;100.00;99695.59;5111040;28;20204;-59
2023/01/05 06:18:27;;;;;;;1.63;1.53;;;;;;;4.23;100.00;99689.63;5111213;28;20245;-58
2023/01/05 06:20:54;;;;;;;2.20;2.00;;;;;;;4.21;100.00;99688.84;5110961;28;20330;-59
2023/01/05 06:23:20;;;;;;;3.73;1.80;;;;;;;4.24;100.00;99687.91;5111251;28;20221;-59
2023/01/05 06:25:47;;;;;;;0.60;0.60;;;;;;;4.21;100.00;99681.25;5111274;28;20201;-61
2023/01/05 06:28:16;;;;;;;2.53;2.07;;;;;;;4.26;100.00;99679.41;5111067;28;20193;-61
2023/01/05 06:30:43;;;;;;;2.23;1.47;;;;;;;4.32;100.00;99674.09;5110818;28;20620;-61
2023/01/05 06:33:09;;;;;;;5.23;1.90;;;;;;;4.42;100.00;99678.81;5110805;28;20205;-61
2023/01/05 06:35:36;;;;;;;2.17;1.67;;;;;;;4.52;100.00;99668.28;5110808;28;20197;-59
2023/01/05 06:38:03;;;;;;;2.37;1.33;;;;;;;4.57;100.00;99665.59;5110542;28;20240;-59
2023/01/05 06:40:30;;;;;;;1.67;1.47;;;;;;;4.57;100.00;99663.06;5110549;28;20197;-59
2023/01/05 06:42:57;;;;;;;1.80;1.30;;;;;;;4.68;100.00;99666.00;5110451;28;20205;-58
2023/01/05 06:45:25;;;;;;;1.73;1.53;;;;;;;4.75;100.00;99667.41;5110662;28;20197;-58
2023/01/05 06:47:52;;;;;;;1.87;1.73;;;;;;;4.88;100.00;99661.84;5110670;28;20197;-59
2023/01/05 06:50:19;;;;;;;1.27;1.00;;;;;;;5.02;100.00;99651.19;5110620;28;20704;-58
2023/01/05 06:52:47;;;;;;;2.07;1.43;;;;;;;4.92;100.00;99653.28;5110346;28;20192;-59
2023/01/05 06:55:14;;;;;;;1.40;1.30;;;;;;;5.04;100.00;99654.47;5109879;28;20232;-61
2023/01/05 06:57:41;;;;;;;2.90;1.97;;;;;;;5.09;100.00;99655.94;5110113;28;20235;-59
2023/01/05 07:00:10;;;;;;;2.30;1.43;;;;;;;5.09;100.00;99645.81;5110218;28;20237;-59
2023/01/05 07:02:38;;;;;;;1.60;1.43;;;;;;;5.02;100.00;99633.44;5110334;28;20700;-59
2023/01/05 07:05:06;;;;;;;1.60;1.50;;;;;;;5.07;100.00;99632.38;5110018;28;20701;-59
2023/01/05 07:07:33;;;;;;;2.70;2.27;;;;;;;5.16;100.00;99633.69;5110601;28;20224;-61
2023/01/05 07:10:00;;;;;;;3.50;2.00;;;;;;;5.28;100.00;99645.88;5109987;28;20713;-61
2023/01/05 07:12:27;;;;;;;2.37;1.77;;;;;;;5.35;100.00;99642.19;5110073;28;20218;-61
2023/01/05 07:14:53;;;;;;;2.93;2.03;;;;;;;5.52;100.00;99646.53;5110039;28;20217;-61
2023/01/05 07:17:20;;;;;;;2.23;2.03;;;;;;;5.67;100.00;99634.91;5110263;28;20236;-61
2023/01/05 07:19:49;;;;;;;3.33;2.13;;;;;;;5.72;100.00;99630.47;5109892;28;20213;-59
2023/01/05 07:22:15;;;;;;;2.70;1.93;;;;;;;5.79;100.00;99620.88;5110088;28;20194;-59
2023/01/05 07:24:43;;;;;;;1.47;1.37;;;;;;;5.95;100.00;99626.94;5109757;28;20216;-61
2023/01/05 07:27:09;;;;;;;5.00;2.17;;;;;;;6.01;100.00;99619.06;5109883;28;20255;-61
2023/01/05 07:29:36;;;;;;;2.20;1.67;;;;;;;6.15;100.00;99607.47;5110032;28;20217;-59
2023/01/05 07:32:04;;;;;;;2.60;1.80;;;;;;;6.20;100.00;99603.00;5110005;28;20202;-59
2023/01/05 07:34:31;;;;;;;3.27;2.30;;;;;;;6.37;100.00;99605.59;5109820;28;20612;-61
2023/01/05 07:36:59;;;;;;;3.20;2.37;;;;;;;6.55;100.00;99602.19;5109618;28;20581;-59
2023/01/05 07:39:26;;;;;;;4.13;2.50;;;;;;;6.78;100.00;99597.72;5109751;28;20225;-59
2023/01/05 07:41:52;;;;;;;4.23;3.03;;;;;;;7.09;100.00;99597.03;5109773;28;20657;-59
2023/01/05 07:44:19;;;;;;;2.37;2.17;;;;;;;7.38;100.00;99598.09;5109767;28;20225;-59
2023/01/05 07:46:46;;;;;;;4.17;2.70;;;;;;;7.50;100.00;99591.56;5109835;28;20205;-61
2023/01/05 07:49:14;;;;;;;3.53;2.53;;;;;;;7.80;100.00;99594.25;5109993;28;20228;-61
2023/01/05 07:51:41;;;;;;;10.10;4.03;;;;;;;7.80;100.00;99595.97;5109849;28;20284;-59
2023/01/05 07:54:09;;;;;;;3.13;2.80;;;;;;;8.01;100.00;99594.84;5109959;28;20217;-59
2023/01/05 07:56:36;;;;;;;3.87;3.07;;;;;;;8.22;100.00;99600.50;5109673;28;20208;-59
2023/01/05 07:59:03;;;;;;;5.30;2.63;;;;;;;8.25;100.00;99600.31;5109608;28;20617;-59
2023/01/05 08:01:30;;;;;;;3.50;3.20;;;;;;;8.19;100.00;99598.13;5109679;28;20216;-59
2023/01/05 08:03:56;;;;;;;5.00;3.77;;;;;;;8.27;100.00;99593.44;5109453;28;20228;-59
2023/01/05 08:06:24;;;;;;;4.23;2.63;;;;;;;8.39;100.00;99585.13;5109532;28;20205;-59
2023/01/05 08:08:51;;;;;;;5.40;2.87;;;;;;;8.55;100.00;99579.19;5113801;28;20220;-59
2023/01/05 08:11:20;;;;;;;4.33;2.73;;;;;;;8.93;100.00;99576.19;5113634;28;20201;-59
2023/01/05 08:14:01;;;;;;;6.90;3.30;;;;;;;8.84;100.00;99570.72;5113941;28;20221;-59
2023/01/05 08:16:30;;;;;;;7.20;4.50;;;;;;;8.96;100.00;99566.66;5113387;28;20617;-59
2023/01/05 08:18:57;;;;;;;6.57;4.63;;;;;;;9.20;100.00;99566.94;5113340;27;20672;-61
2023/01/05 08:21:24;;;;;;;4.77;2.33;;;;;;;9.36;100.00;99563.47;5113606;28;20208;-61
2023/01/05 08:23:52;;;;;;;6.03;3.97;;;;;;;9.64;100.00;99568.56;5113198;27;20221;-62
2023/01/05 08:26:22;;;;;;;4.43;3.47;;;;;;;9.95;100.00;99569.25;5113375;28;20208;-62
2023/01/05 08:28:50;;;;;;;5.20;3.23;;;;;;;10.26;99.31;99569.88;5113663;28;20221;-62
2023/01/05 08:31:18;;;;;;;5.50;3.27;;;;;;;10.50;97.37;99573.47;5113161;28;20202;-62
2023/01/05 08:33:45;;;;;;;7.47;3.30;;;;;;;10.52;96.08;99569.06;5113483;28;20217;-61
2023/01/05 08:36:14;;;;;;;5.77;4.00;;;;;;;10.68;96.17;99565.53;5113289;28;20197;-61
2023/01/05 08:38:47;;;;;;;10.63;5.27;;;;;;;10.48;96.06;99570.19;5113271;28;20259;-61
2023/01/05 08:41:16;;;;;;;7.50;4.30;;;;;;;10.56;96.54;99557.75;5113235;28;20659;-59
2023/01/05 08:43:48;;;;;;;7.87;4.07;;;;;;;10.47;94.87;99558.34;5112925;28;20240;-59
2023/01/05 08:46:15;;;;;;;6.47;4.93;;;;;;;10.52;96.44;99551.19;5113374;28;20578;-60
2023/01/05 08:48:42;;;;;;;6.07;3.50;;;;;;;10.73;95.38;99556.63;5112950;28;20228;-62
2023/01/05 08:51:09;;;;;;;7.60;4.73;;;;;;;10.72;95.11;99562.66;5112683;28;20208;-60
2023/01/05 08:53:36;;;;;;;8.83;4.83;;;;;;;10.74;95.33;99549.81;5112638;27;20221;-59
2023/01/05 08:56:03;;;;;;;7.97;4.37;;;;;;;10.84;94.78;99555.94;5112963;28;20201;-59
2023/01/05 08:58:30;;;;;;;11.67;3.80;;;;;;;10.96;94.72;99544.88;5112509;28;20237;-62
2023/01/05 09:00:58;;;;;;;6.67;4.93;;;;;;;11.07;94.00;99547.56;5112616;28;20224;-62
2023/01/05 09:03:25;;;;;;;6.87;4.47;;;;;;;11.16;93.14;99541.00;5112892;28;20222;-62
2023/01/05 09:05:53;;;;;;;6.83;4.13;;;;;;;11.29;92.77;99543.56;5112509;28;20617;-62
2023/01/05 09:08:20;;;;;;;6.83;3.77;;;;;;;11.15;92.41;99543.69;5112690;28;20274;-59
2023/01/05 09:10:47;;;;;;;7.43;3.90;;;;;;;11.20;92.48;99542.44;5112509;28;20208;-59
2023/01/05 09:13:14;;;;;;;7.17;4.20;;;;;;;11.28;92.32;99532.47;5112493;28;20197;-62
2023/01/05 09:15:41;;;;;;;7.70;4.53;;;;;;;11.25;91.97;99529.31;5112351;28;20667;-62
2023/01/05 09:18:09;;;;;;;9.13;4.03;;;;;;;11.01;91.54;99522.38;5111625;28;20233;-62
2023/01/05 09:20:36;;;;;;;6.60;4.43;;;;;;;10.86;92.87;99513.16;5112474;28;20202;-62
2023/01/05 09:23:03;;;;;;;8.57;4.03;;;;;;;10.95;93.33;99517.66;5111857;28;20212;-59
2023/01/05 09:25:30;;;;;;;6.27;4.03;;;;;;;11.32;93.41;99520.31;5112128;28;20232;-62
2023/01/05 09:27:57;;;;;;;7.17;4.60;;;;;;;11.74;92.43;99513.13;5112282;28;20205;-62
2023/01/05 09:30:24;;;;;;;5.73;4.13;;;;;;;12.18;90.58;99514.31;5112368;28;20193;-62
2023/01/05 09:32:50;;;;;;;10.60;5.00;;;;;;;12.32;88.11;99506.44;5111899;28;20198;-62
2023/01/05 09:35:19;;;;;;;12.60;4.87;;;;;;;12.34;86.45;99499.47;5112478;28;20218;-60
2023/01/05 09:37:46;;;;;;;9.00;5.57;;;;;;;12.15;85.80;99494.03;5111828;28;20236;-60
2023/01/05 09:40:13;;;;;;;9.30;4.60;;;;;;;12.06;86.41;99492.13;5112025;27;20238;-62
2023/01/05 09:42:45;;;;;;;6.87;3.67;;;;;;;12.20;85.94;99479.13;5111914;28;20202;-60
2023/01/05 09:45:15;;;;;;;8.17;4.20;;;;;;;12.38;84.93;99467.53;5111998;28;20720;-59
2023/01/05 09:47:45;;;;;;;8.73;4.73;;;;;;;12.19;83.55;99459.56;5111861;28;20211;-62
2023/01/05 09:50:20;;;;;;;5.23;3.57;;;;;;;12.11;84.49;99446.47;5111626;28;20254;-59
2023/01/05 09:52:48;;;;;;;8.60;4.13;;;;;;;12.00;84.99;99439.56;5111937;28;20198;-60
2023/01/05 09:55:17;;;;;;;9.00;4.50;;;;;;;11.85;85.91;99435.53;5111525;28;20218;-59
2023/01/05 09:57:54;;;;;;;6.13;3.40;;;;;;;12.23;85.32;99435.34;5111598;28;20295;-62
2023/01/05 10:00:23;;;;;;;8.20;3.80;;;;;;;12.68;83.67;99423.41;5111904;28;20193;-60
2023/01/05 10:02:53;;;;;;;5.10;3.10;;;;;;;13.03;81.66;99426.75;5111546;28;20198;-62
2023/01/05 10:05:23;;;;;;;7.77;3.70;;;;;;;13.47;79.77;99422.53;5111711;28;20195;-63
2023/01/05 10:07:54;;;;;;;8.53;4.73;;;;;;;13.80;77.51;99412.13;5111453;28;20195;-60
2023/01/05 10:10:29;;;;;;;8.63;4.60;;;;;;;13.96;76.31;99403.16;5111602;28;20193;-63
2023/01/05 10:13:04;;;;;;;12.93;4.23;;;;;;;13.64;76.74;99398.06;5111484;28;20203;-60
2023/01/05 10:15:37;;;;;;;6.70;4.67;;;;;;;13.72;76.16;99391.38;5111455;28;20284;-60
2023/01/05 10:18:12;;;;;;;7.33;4.40;;;;;;;13.91;76.22;99390.72;5111078;28;20225;-60
2023/01/05 10:20:50;;;;;;;6.60;4.13;;;;;;;14.03;73.57;99388.88;5111262;28;20288;-60
2023/01/05 10:23:35;;;;;;;4.70;2.97;;;;;;;14.37;72.26;99386.09;5111134;28;20232;-60
2023/01/05 10:26:09;;;;;;;6.50;3.40;;;;;;;14.58;70.91;99384.34;5111051;28;20194;-63
2023/01/05 10:28:42;;;;;;;5.43;3.70;;;;;;;14.90;67.90;99379.03;5111180;28;20234;-63
2023/01/05 10:31:19;;;;;;;7.57;3.73;;;;;;;15.37;66.85;99371.53;5110187;28;20190;-63
2023/01/05 10:33:52;;;;;;;7.13;4.27;;;;;;;15.36;65.83;99359.59;5111067;28;20622;-63
2023/01/05 10:36:36;;;;;;;7.17;3.43;;;;;;;14.96;68.17;99362.25;5111327;28;20190;-60
2023/01/05 10:39:15;;;;;;;6.10;3.43;;;;;;;15.08;65.35;99361.19;5111171;28;20229;-63
2023/01/05 10:41:53;;;;;;;6.67;3.70;;;;;;;15.34;63.40;99347.81;5110954;28;20210;-63
2023/01/05 10:44:40;;;;;;;7.23;3.40;;;;;;;15.17;66.35;99344.94;5111063;28;20252;-63
2023/01/05 10:47:09;;;;;;;6.93;3.87;;;;;;;15.15;68.31;99354.56;5110623;28;20201;-63
2023/01/05 10:49:37;;;;;;;6.00;3.80;;;;;;;15.41;65.55;99336.00;5110886;28;20223;-60
2023/01/05 10:52:12;;;;;;;7.10;3.70;;;;;;;14.61;64.68;99340.34;5110419;28;20195;-60
2023/01/05 10:54:43;;;;;;;6.90;3.67;;;;;;;14.45;66.29;99337.41;5110846;28;20249;-60
2023/01/05 10:57:33;;;;;;;7.10;3.60;;;;;;;13.95;68.36;99321.88;5110225;28;20698;-60
2023/01/05 11:00:01;;;;;;;5.63;3.53;;;;;;;14.15;68.09;99308.16;5110134;28;20240;-60
2023/01/05 11:02:34;;;;;;;5.80;3.47;;;;;;;14.50;67.50;99305.19;5110476;28;20199;-60
2023/01/05 11:05:04;;;;;;;4.10;2.77;;;;;;;14.29;68.28;99307.03;5110297;28;20744;-60
2023/01/05 11:07:33;;;;;;;4.60;3.10;;;;;;;14.38;67.89;99305.44;5110346;28;20206;-60
2023/01/05 11:09:59;;;;;;;7.87;4.03;;;;;;;14.32;67.51;99316.25;5110119;28;20224;-63
2023/01/05 11:12:27;;;;;;;4.73;3.03;;;;;;;13.90;68.16;99321.41;5110354;28;20208;-63
2023/01/05 11:14:56;;;;;;;6.87;3.20;;;;;;;13.43;69.45;99329.47;5110318;28;20259;-61
2023/01/05 11:17:26;;;;;;;4.53;2.77;;;;;;;13.38;70.45;99320.50;5110405;28;20198;-62
2023/01/05 11:19:56;;;;;;;6.67;3.40;;;;;;;13.23;71.67;99323.31;5110047;28;20237;-60
2023/01/05 11:22:35;;;;;;;7.00;3.10;;;;;;;13.10;71.63;99332.94;5110498;28;20203;-63
2023/01/05 11:25:22;;;;;;;4.60;3.03;;;;;;;12.69;72.00;99344.69;5109957;28;20265;-62
2023/01/05 11:28:06;;;;;;;7.37;3.80;;;;;;;12.25;74.54;99330.94;5110173;28;20196;-62
2023/01/05 11:30:33;;;;;;;5.40;2.90;;;;;;;12.28;75.37;99320.44;5110261;28;20207;-62
2023/01/05 11:33:01;;;;;;;5.27;3.57;;;;;;;12.33;76.19;99307.25;5110141;28;20645;-60
2023/01/05 11:35:32;;;;;;;8.93;4.00;;;;;;;12.54;75.65;99309.97;5110142;28;20693;-60
2023/01/05 11:38:00;;;;;;;6.33;3.70;;;;;;;12.38;74.89;99295.72;5110144;28;20589;-62
2023/01/05 11:40:31;;;;;;;5.90;3.03;;;;;;;12.48;73.24;99289.88;5110449;28;20410;-60
2023/01/05 11:42:59;;;;;;;4.77;2.83;;;;;;;12.27;72.79;99277.78;5116913;27;20264;-63
2023/01/05 11:45:29;;;;;;;4.83;2.83;;;;;;;12.47;73.17;99273.69;5116808;27;20209;-63
2023/01/05 11:47:58;;;;;;;4.57;2.97;;;;;;;12.37;73.33;99263.34;5116625;27;20278;-60
2023/01/05 11:50:27;;;;;;;3.80;2.63;;;;;;;12.20;74.18;99259.50;5116907;27;20201;-60
2023/01/05 11:52:56;;;;;;;4.17;2.77;;;;;;;11.93;74.39;99244.47;5116605;27;20197;-60
2023/01/05 11:55:30;;;;;;;3.57;2.17;;;;;;;12.06;76.50;99244.34;5116709;27;20201;-60
2023/01/05 11:58:23;;;;;;;4.97;3.03;;;;;;;12.29;75.11;99234.91;5116453;27;20207;-60
2023/01/05 12:01:24;;;;;;;3.00;1.97;;;;;;;12.49;74.27;99240.25;5108459;27;20204;-60
2023/01/05 12:04:20;;;;;;;4.07;2.00;;;;;;;12.71;73.04;99234.25;5090104;27;20248;-60
2023/01/05 12:07:01;;;;;;;3.10;2.30;;;;;;;12.69;72.85;99231.81;5089960;27;20397;-60
2023/01/05 12:09:31;;;;;;;4.97;2.60;;;;;;;12.89;73.22;99218.22;5116494;27;20732;-60
2023/01/05 12:12:13;;;;;;;4.50;2.37;;;;;;;13.29;72.07;99225.31;5116400;27;20208;-59